Hilltop, Minnesota
Current Conditions -  °F | °C
As of 6:53 PM on Saturday 25 Oct 2014 (Local Time) from KMIC Reporting Station
Clear Clear  
Wind Chill: 56°   Ceiling: Unl
Heat Index: 56°   Visibility: 10mi
Dew Point: 25°   Wind: 8mph
Humidity: 30%   Direction: 290°WNW
Pressure: 30.03"   Gusts: NA
Location:  45.0516°N, 93.2549°W
Report Text: KMIC 252353Z 29007KT 10SM CLR 13/M04 A3003 RMK AO2 SLP173 T01331039 10183 20122 51005
Loading
Personal Weather Stations






























Interactive Weather Map
Tropical Storm Tracking
New forecast layout! Learn more

10-Day Weather Forecast

Advertisements
Track Severe Weather on mobile